Tribhuvan International Airport
VNKT : now visible

Airfield :











YOU CAN JOIN US ON...

 
LOGIN :

Register | Disclaimer

   EN    FR    IT 

 









Legend :    VFR   Marginal VFR   IFR   Intensive IFR   Very Intensive IFR
Visi :
Ceiling :
>= 8 km
>= 3000ft
5 to 8 km
1000 to 3000 ft
1500m to 5 km
500 to 1000 ft
800 to 1500m
200 to 500 ft
< 800m
< 200 ft
Symbols :   Thunderstorms  Fog  Heavy snow  Heavy precipitations  Wind > 20 kt






- Airport Elevation : 4390 ft
- IATA code : KTM


VNKT - Tribhuvan International

CURRENT METAR :
  • 161850Z VRB02KT 3500 BR FEW015 12/10 Q1021 NOSIG

EXPIRED METARs :
  • 161820Z 10003KT 4000 BR FEW015 12/10 Q1021 NOSIG
  • 161750Z 10003KT 4000 BR FEW015 12/10 Q1021 NOSIG
  • 161720Z 11003KT 3000 BR FEW015 13/10 Q1021 NOSIG
  • 161650Z 07004KT 3000 BR FEW015 13/11 Q1022 NOSIG
  • 161620Z VRB02KT 3500 BR FEW015 13/11 Q1022 NOSIG

TAF TAF VNKT
Valid from the 16 at 18:00 until the 17 at 18:00 UTC


161700Z 1618/1718 VRB02KT 5000 BR FEW015 SCT030 BEMCG 1700/1702 00000KT 3000 BR FEW010 SCT100
PROB40 1701/1703 1500 BR
BECMG 1704/1705 13003KT 4000 HZ FEW015 SCT100
BECMG 1707/1708 24006KT 7000 FEW020 SCT030 BKN100
BECMG 1714/1715 13003KT 6000 FEW015 SCT030



MET'MAP, your aeronautical weather chart ! - Copyright ORBIFLY December 2007 - Disclaimer

ORBIFLY MET'MAP TEAM :

Programming & Development : Alexandra Zaïnal
Concept & original design : Baudouin d'Aumeries
Assistance for programming : Marc-Olivier Méhu
Technical & hardware support : Manuel Goepfert

Contact : metmap@orbifly.com




SOURCES & CREDITS :

   NOAA       Earth
Advisory